Time;durP1;ratioP1;P1;durP2;ratioP2;P2;SDS_P1;SDS_P2;PMS_P1;PMS_P2;Temp;Humidity;BMP_temperature;BMP_pressure;BME280_temperature;BME280_humidity;BME280_pressure;Samples;Min_cycle;Max_cycle;Signal;HPM_P1;HPM_P2
2023/09/15 00:00:17;;;;;;;5.27;3.40;;;14.60;98.00;;;;;;5013414;28;20462;-69
2023/09/15 00:02:46;;;;;;;4.67;3.07;;;14.50;98.00;;;;;;5013212;28;20972;-69
2023/09/15 00:05:14;;;;;;;4.90;3.30;;;14.70;98.00;;;;;;5013231;28;20557;-68
2023/09/15 00:07:41;;;;;;;5.13;3.07;;;14.60;98.00;;;;;;5013126;28;20467;-68
2023/09/15 00:10:11;;;;;;;6.20;3.50;;;14.50;98.00;;;;;;5013138;28;20456;-69
2023/09/15 00:12:40;;;;;;;5.10;3.30;;;14.50;98.00;;;;;;5012988;28;20455;-68
2023/09/15 00:15:08;;;;;;;6.13;3.07;;;14.60;98.00;;;;;;5013215;28;20491;-70
2023/09/15 00:17:36;;;;;;;6.00;3.37;;;14.60;98.00;;;;;;5012517;28;20452;-69
2023/09/15 00:20:13;;;;;;;5.40;3.10;;;14.60;98.00;;;;;;5012914;28;20451;-68
2023/09/15 00:22:41;;;;;;;8.67;3.40;;;14.60;98.00;;;;;;5012845;28;20509;-69
2023/09/15 00:25:09;;;;;;;7.70;3.70;;;14.50;98.00;;;;;;5012739;28;20895;-69
2023/09/15 00:27:43;;;;;;;7.40;3.70;;;14.50;98.00;;;;;;5012963;28;20461;-68
2023/09/15 00:30:14;;;;;;;5.00;3.20;;;14.40;98.00;;;;;;5013170;28;20470;-69
2023/09/15 00:32:41;;;;;;;7.63;3.70;;;14.50;98.00;;;;;;5012622;28;20458;-68
2023/09/15 00:35:08;;;;;;;7.40;3.93;;;14.50;98.00;;;;;;5012728;28;20451;-69
2023/09/15 00:37:36;;;;;;;5.57;3.40;;;14.40;98.00;;;;;;4995139;28;20545;-69
2023/09/15 00:40:05;;;;;;;6.33;3.33;;;14.30;98.00;;;;;;5012623;28;20451;-69
2023/09/15 00:42:32;;;;;;;5.63;3.40;;;14.10;98.00;;;;;;5012384;28;20479;-69
2023/09/15 00:45:04;;;;;;;6.77;3.80;;;14.10;98.00;;;;;;5012524;28;20462;-69
2023/09/15 00:47:33;;;;;;;6.70;4.00;;;14.10;98.00;;;;;;5012737;28;20814;-68
2023/09/15 00:50:00;;;;;;;5.00;3.37;;;14.20;98.00;;;;;;5012378;28;20534;-69
2023/09/15 00:52:28;;;;;;;7.20;3.23;;;14.30;98.00;;;;;;5012465;28;20954;-69
2023/09/15 00:54:56;;;;;;;5.33;3.40;;;14.20;98.00;;;;;;5012317;28;20485;-69
2023/09/15 00:57:25;;;;;;;5.40;3.20;;;14.30;98.00;;;;;;5012336;28;20458;-70
2023/09/15 00:59:52;;;;;;;6.37;3.40;;;14.20;98.00;;;;;;5012258;28;20452;-68
2023/09/15 01:02:20;;;;;;;5.77;3.40;;;14.40;98.00;;;;;;5012131;28;20499;-68
2023/09/15 01:04:48;;;;;;;6.40;3.80;;;14.40;98.00;;;;;;5011586;28;20459;-69
2023/09/15 01:07:15;;;;;;;4.50;3.27;;;14.30;98.00;;;;;;5011973;28;20467;-70
2023/09/15 01:09:42;;;;;;;8.47;3.60;;;14.20;98.00;;;;;;4994374;28;20518;-69
2023/09/15 01:12:12;;;;;;;8.77;3.33;;;14.00;98.00;;;;;;5012103;28;20456;-70
2023/09/15 01:14:39;;;;;;;6.27;3.47;;;14.10;98.00;;;;;;5011950;28;20470;-69
2023/09/15 01:17:10;;;;;;;8.10;3.20;;;14.00;98.00;;;;;;5012054;28;20459;-68
2023/09/15 01:19:53;;;;;;;6.43;3.33;;;13.90;98.00;;;;;;5011886;28;20456;-68
2023/09/15 01:23:09;;;;;;;4.50;2.90;;;14.00;98.00;;;;;;5011949;28;20462;-69
2023/09/15 01:25:56;;;;;;;6.07;3.30;;;13.90;98.00;;;;;;5005889;28;20485;-68
2023/09/15 01:28:55;;;;;;;6.10;3.30;;;13.80;98.00;;;;;;5011783;28;20452;-68
2023/09/15 01:31:25;;;;;;;5.70;3.20;;;13.90;98.00;;;;;;5011206;28;20509;-68
2023/09/15 01:33:53;;;;;;;6.43;3.30;;;13.70;98.00;;;;;;5011676;28;20462;-68
2023/09/15 01:36:21;;;;;;;5.10;3.20;;;13.80;98.00;;;;;;5011759;28;20454;-68
2023/09/15 01:38:48;;;;;;;5.77;3.60;;;13.70;98.00;;;;;;5011763;28;20892;-68
2023/09/15 01:41:15;;;;;;;5.10;3.47;;;13.70;98.00;;;;;;5011824;28;20462;-68
2023/09/15 01:43:42;;;;;;;4.77;3.40;;;13.80;98.00;;;;;;5011408;28;20450;-68
2023/09/15 01:46:09;;;;;;;7.93;3.53;;;13.90;98.00;;;;;;5011511;28;20567;-68
2023/09/15 01:48:38;;;;;;;6.00;3.30;;;14.00;98.00;;;;;;5011469;28;20465;-66
2023/09/15 01:51:05;;;;;;;5.20;3.37;;;14.20;98.00;;;;;;5011608;28;20450;-67
2023/09/15 01:53:36;;;;;;;6.67;3.80;;;14.20;98.00;;;;;;5011342;28;20458;-68
2023/09/15 01:56:03;;;;;;;6.63;3.37;;;14.20;98.00;;;;;;5011505;28;20814;-68
2023/09/15 01:58:30;;;;;;;6.33;3.67;;;13.90;98.00;;;;;;5011263;28;20451;-68
2023/09/15 02:00:57;;;;;;;6.37;3.50;;;13.80;98.00;;;;;;5011294;28;20458;-69
2023/09/15 02:03:24;;;;;;;5.07;3.20;;;13.70;98.00;;;;;;5011432;28;20475;-68
2023/09/15 02:05:54;;;;;;;6.43;3.70;;;13.70;98.00;;;;;;5011182;28;20900;-69
2023/09/15 02:08:23;;;;;;;7.20;3.50;;;13.90;98.00;;;;;;4993930;28;21003;-68
2023/09/15 02:10:50;;;;;;;5.40;3.07;;;14.00;98.00;;;;;;5011720;28;20466;-69
2023/09/15 02:13:17;;;;;;;7.90;3.60;;;14.10;98.00;;;;;;5011437;28;20456;-69
2023/09/15 02:15:44;;;;;;;6.40;3.40;;;14.10;98.00;;;;;;5011431;28;20470;-68
2023/09/15 02:18:11;;;;;;;6.73;3.50;;;14.00;98.00;;;;;;5011272;28;20463;-70
2023/09/15 02:20:38;;;;;;;6.80;3.87;;;14.10;98.00;;;;;;5011374;28;20459;-68
2023/09/15 02:23:06;;;;;;;7.37;3.73;;;13.90;98.00;;;;;;5011093;28;20495;-68
2023/09/15 02:25:35;;;;;;;7.07;3.30;;;13.90;98.00;;;;;;5011108;28;20538;-68
2023/09/15 02:28:03;;;;;;;7.30;4.07;;;13.80;98.00;;;;;;5011123;28;20471;-68
2023/09/15 02:30:30;;;;;;;5.60;2.90;;;13.70;98.00;;;;;;5011235;28;20532;-69
2023/09/15 02:32:57;;;;;;;6.03;3.30;;;13.60;98.00;;;;;;5010770;28;20452;-69
2023/09/15 02:35:24;;;;;;;4.77;3.30;;;13.60;98.00;;;;;;5011017;28;20461;-68
2023/09/15 02:37:51;;;;;;;6.73;3.37;;;13.50;98.00;;;;;;5010870;28;20858;-68
2023/09/15 02:40:20;;;;;;;8.10;3.27;;;13.40;98.00;;;;;;5011026;28;20463;-68
2023/09/15 02:42:47;;;;;;;9.20;3.90;;;13.30;98.00;;;;;;5013688;28;20461;-69
2023/09/15 02:45:14;;;;;;;6.20;3.20;;;13.30;98.00;;;;;;5014756;28;20453;-68
2023/09/15 02:47:41;;;;;;;5.50;3.30;;;13.20;98.00;;;;;;5014571;28;20489;-68
2023/09/15 02:50:09;;;;;;;5.43;3.40;;;13.20;98.00;;;;;;5014670;28;20869;-68
2023/09/15 02:52:36;;;;;;;5.73;3.10;;;13.20;98.00;;;;;;5014562;28;20462;-68
2023/09/15 02:55:05;;;;;;;6.43;3.53;;;13.20;98.00;;;;;;5014606;28;20461;-69
2023/09/15 02:57:33;;;;;;;4.80;3.00;;;13.20;98.00;;;;;;5014584;28;20482;-69
2023/09/15 03:00:00;;;;;;;10.90;3.50;;;13.20;98.00;;;;;;4997093;28;20514;-69
2023/09/15 03:02:28;;;;;;;6.90;3.50;;;13.20;98.00;;;;;;5014848;28;20875;-68
2023/09/15 03:04:55;;;;;;;6.50;3.90;;;13.00;98.00;;;;;;5014624;28;20488;-69
2023/09/15 03:07:22;;;;;;;5.20;2.83;;;13.10;98.00;;;;;;4997304;28;20489;-68
2023/09/15 03:09:49;;;;;;;7.60;3.50;;;13.10;98.00;;;;;;4997060;28;20461;-68
2023/09/15 03:12:16;;;;;;;5.03;3.60;;;13.10;98.00;;;;;;5014445;28;20472;-68
2023/09/15 03:14:44;;;;;;;4.97;3.37;;;13.10;98.00;;;;;;5014275;28;20949;-68
2023/09/15 03:17:12;;;;;;;6.23;3.27;;;13.20;98.00;;;;;;5014150;28;20800;-70
2023/09/15 03:19:39;;;;;;;5.80;3.50;;;13.30;98.00;;;;;;4996919;28;20823;-68
2023/09/15 03:22:06;;;;;;;5.40;3.10;;;13.30;98.00;;;;;;5014414;28;20467;-68
2023/09/15 03:24:33;;;;;;;4.77;3.00;;;13.30;98.00;;;;;;5014112;28;20455;-68
2023/09/15 03:27:00;;;;;;;7.23;3.57;;;13.30;98.00;;;;;;5013921;28;20490;-68
2023/09/15 03:29:27;;;;;;;5.07;3.00;;;13.30;98.00;;;;;;5013792;28;20470;-68
2023/09/15 03:31:56;;;;;;;6.37;3.53;;;13.40;98.00;;;;;;5013771;28;20517;-68
2023/09/15 03:34:23;;;;;;;5.80;3.10;;;13.50;98.00;;;;;;5013836;28;20482;-67
2023/09/15 03:36:51;;;;;;;6.37;3.70;;;13.40;98.00;;;;;;5013879;28;20796;-68
2023/09/15 03:39:18;;;;;;;6.57;3.27;;;13.20;98.00;;;;;;5013764;28;20845;-67
2023/09/15 03:41:45;;;;;;;6.20;3.10;;;13.00;98.00;;;;;;5013756;28;20990;-68
2023/09/15 03:44:12;;;;;;;4.87;3.13;;;12.90;98.00;;;;;;5013600;28;20457;-68
2023/09/15 03:46:39;;;;;;;8.33;3.47;;;12.90;98.00;;;;;;5013638;28;20501;-68
2023/09/15 03:49:08;;;;;;;5.80;3.40;;;12.90;98.00;;;;;;5013514;28;20464;-68
2023/09/15 03:51:35;;;;;;;6.87;3.87;;;12.90;98.00;;;;;;5013679;28;20450;-69
2023/09/15 03:54:02;;;;;;;4.83;3.33;;;12.80;98.00;;;;;;5013307;28;20470;-69
2023/09/15 03:56:30;;;;;;;7.37;3.83;;;12.80;98.00;;;;;;4996275;28;20549;-67
2023/09/15 03:58:58;;;;;;;5.57;3.27;;;12.80;98.00;;;;;;4996309;28;20465;-67
2023/09/15 04:01:26;;;;;;;7.40;3.77;;;12.80;98.00;;;;;;5014018;28;20500;-69
2023/09/15 04:03:54;;;;;;;5.37;3.20;;;12.90;98.00;;;;;;5013456;28;20456;-68
2023/09/15 04:06:23;;;;;;;7.77;3.90;;;12.80;98.00;;;;;;5013302;28;20673;-68
2023/09/15 04:08:51;;;;;;;6.10;3.47;;;12.70;98.00;;;;;;5013199;28;20466;-68
2023/09/15 04:11:18;;;;;;;6.77;3.80;;;12.60;98.00;;;;;;5013236;28;20457;-69
2023/09/15 04:13:46;;;;;;;6.87;3.57;;;12.60;98.00;;;;;;5013028;28;20462;-70
2023/09/15 04:16:13;;;;;;;5.63;3.40;;;12.60;98.00;;;;;;5013699;28;21062;-69
2023/09/15 04:18:41;;;;;;;9.20;3.60;;;12.50;98.00;;;;;;5014014;28;20462;-69
2023/09/15 04:21:08;;;;;;;7.23;3.53;;;12.50;98.00;;;;;;5013971;28;20456;-68
2023/09/15 04:23:37;;;;;;;9.60;3.90;;;12.50;98.00;;;;;;5013435;28;20834;-69
2023/09/15 04:26:04;;;;;;;6.83;3.70;;;12.50;98.00;;;;;;4980231;28;20475;-67
2023/09/15 04:28:33;;;;;;;7.00;3.40;;;12.50;98.00;;;;;;5013789;28;20544;-68
2023/09/15 04:31:01;;;;;;;7.53;3.80;;;12.50;98.00;;;;;;5013542;28;20455;-68
2023/09/15 04:33:28;;;;;;;8.53;3.70;;;12.60;98.00;;;;;;5012835;28;20465;-68
2023/09/15 04:35:55;;;;;;;6.33;3.60;;;12.60;98.00;;;;;;5012825;28;20454;-67
2023/09/15 04:38:22;;;;;;;5.53;3.27;;;12.60;98.00;;;;;;5013117;28;20485;-68
2023/09/15 04:40:51;;;;;;;7.07;3.60;;;12.50;98.00;;;;;;5012885;28;20462;-68
2023/09/15 04:43:18;;;;;;;6.77;3.57;;;12.50;98.00;;;;;;5012970;28;20449;-68
2023/09/15 04:45:45;;;;;;;6.47;3.40;;;12.50;98.00;;;;;;5012953;28;20458;-70
2023/09/15 04:48:12;;;;;;;6.17;3.73;;;12.60;98.00;;;;;;5012830;28;20466;-68
2023/09/15 04:50:40;;;;;;;5.57;3.30;;;12.60;98.00;;;;;;5012717;28;20461;-70
2023/09/15 04:53:07;;;;;;;5.87;3.87;;;12.70;98.00;;;;;;5012732;28;20618;-68
2023/09/15 04:55:35;;;;;;;6.23;3.33;;;12.90;98.00;;;;;;5012527;28;20485;-66
2023/09/15 04:58:03;;;;;;;8.70;3.80;;;12.70;98.00;;;;;;5012049;28;20492;-68
2023/09/15 05:00:34;;;;;;;5.47;2.97;;;12.60;98.00;;;;;;5012246;28;20953;-69
2023/09/15 05:03:02;;;;;;;8.10;3.87;;;12.60;98.00;;;;;;5012590;28;20513;-68
2023/09/15 05:05:30;;;;;;;13.43;4.27;;;12.60;98.00;;;;;;5011546;28;20460;-70
2023/09/15 05:07:57;;;;;;;6.27;3.37;;;12.60;98.00;;;;;;5012254;28;20467;-69
2023/09/15 05:10:24;;;;;;;11.13;3.67;;;12.50;98.00;;;;;;5012069;28;20536;-68
2023/09/15 05:12:51;;;;;;;6.77;3.97;;;12.50;98.00;;;;;;5011881;28;20458;-69
2023/09/15 05:15:19;;;;;;;8.10;4.03;;;12.50;98.00;;;;;;5012036;28;20445;-68
2023/09/15 05:17:46;;;;;;;6.80;3.70;;;12.50;98.00;;;;;;5011637;28;20488;-68
2023/09/15 05:20:14;;;;;;;6.37;3.60;;;12.50;98.00;;;;;;5011879;28;20835;-68
2023/09/15 05:22:42;;;;;;;5.50;3.37;;;12.70;98.00;;;;;;4994299;28;20452;-69
2023/09/15 05:25:09;;;;;;;7.40;3.73;;;12.80;98.00;;;;;;5011855;28;20452;-70
2023/09/15 05:27:40;;;;;;;7.90;4.13;;;13.00;98.00;;;;;;5011678;28;20464;-68
2023/09/15 05:30:08;;;;;;;5.90;3.50;;;12.90;98.00;;;;;;5011898;28;20464;-68
2023/09/15 05:32:36;;;;;;;6.07;3.70;;;12.90;98.00;;;;;;5011768;28;20461;-68
2023/09/15 05:35:03;;;;;;;7.90;3.60;;;12.70;98.00;;;;;;5011772;28;20476;-67
2023/09/15 05:37:31;;;;;;;7.83;4.30;;;12.90;98.00;;;;;;4994337;28;20489;-68
2023/09/15 05:40:00;;;;;;;7.37;3.40;;;12.90;98.00;;;;;;5011957;28;20511;-68
2023/09/15 05:42:27;;;;;;;5.47;3.20;;;12.90;98.00;;;;;;5011634;28;20468;-67
2023/09/15 05:44:55;;;;;;;8.00;3.77;;;12.90;98.00;;;;;;4994316;28;20484;-68
2023/09/15 05:47:22;;;;;;;8.37;3.73;;;12.80;98.00;;;;;;5011469;28;20544;-68
2023/09/15 05:49:50;;;;;;;8.80;3.77;;;12.70;98.00;;;;;;5011532;28;20822;-67
2023/09/15 05:52:18;;;;;;;12.53;3.53;;;12.70;98.00;;;;;;5011576;28;20455;-68
2023/09/15 05:54:46;;;;;;;6.50;3.73;;;12.80;98.00;;;;;;4994408;28;20959;-69
2023/09/15 05:57:13;;;;;;;8.17;3.57;;;13.00;98.00;;;;;;4994320;28;20494;-67
2023/09/15 05:59:40;;;;;;;7.97;3.77;;;13.20;98.00;;;;;;4994125;28;20975;-68
2023/09/15 06:02:08;;;;;;;5.33;3.40;;;13.30;98.00;;;;;;5011603;28;20466;-68
2023/09/15 06:04:35;;;;;;;7.10;3.50;;;13.40;98.00;;;;;;5011630;28;20553;-69
2023/09/15 06:07:04;;;;;;;7.40;3.30;;;13.40;98.00;;;;;;4994289;28;20459;-68
2023/09/15 06:09:31;;;;;;;7.07;4.10;;;13.60;98.00;;;;;;5011462;28;20463;-68
2023/09/15 06:11:58;;;;;;;8.47;4.00;;;13.70;98.00;;;;;;5011693;28;20923;-68
2023/09/15 06:14:28;;;;;;;6.80;3.60;;;13.60;98.00;;;;;;5011552;28;20454;-69
2023/09/15 06:16:55;;;;;;;8.17;3.63;;;13.60;98.00;;;;;;5012891;28;20487;-68
2023/09/15 06:19:23;;;;;;;8.97;4.00;;;13.70;98.00;;;;;;5015493;28;20518;-67
2023/09/15 06:21:50;;;;;;;8.30;4.50;;;13.80;98.00;;;;;;5015539;28;20456;-68
2023/09/15 06:24:19;;;;;;;8.03;3.90;;;13.90;98.00;;;;;;5015376;28;20458;-69
2023/09/15 06:26:46;;;;;;;9.27;4.80;;;14.10;98.00;;;;;;4997770;28;20451;-64
2023/09/15 06:29:15;;;;;;;10.73;3.80;;;14.10;98.00;;;;;;5015233;28;20525;-64
2023/09/15 06:31:42;;;;;;;7.70;3.40;;;14.10;98.00;;;;;;5015234;28;20458;-64
2023/09/15 06:34:09;;;;;;;6.80;4.07;;;14.20;98.00;;;;;;4997876;28;20469;-64
2023/09/15 06:36:38;;;;;;;6.30;4.10;;;14.30;98.00;;;;;;5014901;28;20804;-64
2023/09/15 06:39:07;;;;;;;7.60;4.13;;;14.40;98.00;;;;;;5014886;28;20456;-64
2023/09/15 06:41:38;;;;;;;6.83;3.87;;;14.50;98.00;;;;;;5015416;28;20934;-64
2023/09/15 06:44:06;;;;;;;8.90;4.43;;;14.70;98.00;;;;;;5015132;28;20454;-64
2023/09/15 06:46:34;;;;;;;6.93;4.17;;;14.70;98.00;;;;;;5014871;28;20934;-64
2023/09/15 06:49:01;;;;;;;7.67;4.30;;;14.70;98.00;;;;;;5014803;28;20526;-64
2023/09/15 06:51:28;;;;;;;8.00;4.30;;;14.70;98.00;;;;;;5014823;28;20458;-64
2023/09/15 06:53:55;;;;;;;9.47;4.53;;;14.70;98.00;;;;;;5014597;28;20466;-64
2023/09/15 06:56:22;;;;;;;6.93;4.10;;;14.80;98.00;;;;;;5014773;28;20486;-64
2023/09/15 06:58:51;;;;;;;6.90;4.03;;;14.80;98.00;;;;;;5014577;28;20572;-64
2023/09/15 07:01:18;;;;;;;7.20;4.10;;;14.80;98.00;;;;;;5014670;28;20459;-65
2023/09/15 07:03:45;;;;;;;10.00;4.70;;;14.80;98.00;;;;;;5014414;28;20462;-65
2023/09/15 07:06:13;;;;;;;5.93;3.40;;;14.90;98.00;;;;;;5014298;28;20956;-66
2023/09/15 07:08:40;;;;;;;5.70;3.20;;;15.20;98.00;;;;;;5014195;28;20462;-66
2023/09/15 07:11:07;;;;;;;5.60;3.53;;;15.90;98.00;;;;;;5014779;28;20459;-66
2023/09/15 07:13:34;;;;;;;9.30;3.50;;;16.50;98.00;;;;;;5014428;28;20458;-66
2023/09/15 07:16:03;;;;;;;6.27;3.67;;;17.00;98.00;;;;;;5014452;28;20447;-66
2023/09/15 07:18:30;;;;;;;6.97;4.20;;;17.50;98.00;;;;;;5014132;28;20483;-66
2023/09/15 07:20:57;;;;;;;8.43;4.50;;;17.90;98.00;;;;;;5014210;28;20474;-66
2023/09/15 07:23:24;;;;;;;6.80;4.10;;;18.10;98.00;;;;;;5014018;28;20950;-64
2023/09/15 07:25:51;;;;;;;8.40;4.00;;;18.00;98.00;;;;;;4996867;28;20482;-64
2023/09/15 07:28:18;;;;;;;5.40;3.67;;;17.90;98.00;;;;;;5013311;28;20506;-64
2023/09/15 07:30:45;;;;;;;8.70;4.60;;;17.80;98.00;;;;;;5012722;28;20452;-64
2023/09/15 07:33:14;;;;;;;8.67;4.80;;;17.60;98.00;;;;;;5013880;28;20510;-64
2023/09/15 07:35:41;;;;;;;8.57;4.53;;;17.50;98.00;;;;;;5013734;28;20836;-64
2023/09/15 07:38:08;;;;;;;8.50;4.57;;;17.40;98.00;;;;;;4996401;28;20524;-64
2023/09/15 07:40:35;;;;;;;7.67;4.77;;;17.40;98.00;;;;;;5013752;28;20801;-64
2023/09/15 07:43:03;;;;;;;7.07;4.20;;;17.40;98.00;;;;;;5013570;28;20510;-64
2023/09/15 07:45:30;;;;;;;6.50;4.50;;;17.40;98.00;;;;;;5013638;28;20455;-64
2023/09/15 07:47:59;;;;;;;8.10;4.47;;;17.40;98.00;;;;;;5013525;28;20459;-64
2023/09/15 07:50:28;;;;;;;10.60;5.17;;;17.40;98.00;;;;;;5013489;28;20871;-64
2023/09/15 07:52:55;;;;;;;9.67;4.70;;;17.30;98.00;;;;;;5013298;28;20451;-64
2023/09/15 07:55:23;;;;;;;15.03;5.27;;;17.40;98.00;;;;;;5013829;28;20828;-65
2023/09/15 07:57:50;;;;;;;8.43;4.50;;;17.50;98.00;;;;;;5012636;28;20490;-65
2023/09/15 08:00:17;;;;;;;9.70;5.10;;;17.50;98.00;;;;;;5013609;28;20460;-64
2023/09/15 08:02:44;;;;;;;8.57;5.00;;;17.50;98.00;;;;;;5013134;28;20452;-64
2023/09/15 08:05:12;;;;;;;8.37;5.23;;;17.60;98.00;;;;;;5005789;28;20464;-64
2023/09/15 08:07:44;;;;;;;10.70;5.20;;;17.80;98.00;;;;;;5008909;28;20510;-65
2023/09/15 08:10:12;;;;;;;8.83;4.80;;;17.80;98.00;;;;;;5013593;28;20454;-65
2023/09/15 08:12:39;;;;;;;11.03;4.97;;;17.80;98.00;;;;;;5013410;28;20526;-65
2023/09/15 08:15:08;;;;;;;8.57;5.10;;;17.90;98.00;;;;;;5013142;28;20451;-64
2023/09/15 08:17:36;;;;;;;8.00;4.63;;;18.00;98.00;;;;;;5013257;28;20882;-64
2023/09/15 08:20:04;;;;;;;8.03;4.80;;;18.10;98.00;;;;;;4995704;28;20819;-64
2023/09/15 08:22:32;;;;;;;9.63;5.00;;;18.10;98.00;;;;;;5012948;28;20529;-65
2023/09/15 08:25:03;;;;;;;11.70;5.10;;;18.30;98.00;;;;;;5013265;28;20475;-65
2023/09/15 08:30:01;;;;;;;8.53;4.90;;;18.60;98.00;;;;;;5199751;22;20563;-64
2023/09/15 08:32:28;;;;;;;9.50;5.23;;;18.80;98.00;;;;;;5012431;28;20452;-65
2023/09/15 08:34:55;;;;;;;7.93;4.47;;;18.90;98.00;;;;;;5012612;28;20459;-65
2023/09/15 08:37:22;;;;;;;9.10;5.00;;;18.90;98.00;;;;;;5012538;28;20448;-65
2023/09/15 08:39:49;;;;;;;8.13;4.57;;;19.20;98.00;;;;;;4993980;28;20452;-65
2023/09/15 08:42:24;;;;;;;9.43;4.73;;;19.30;98.00;;;;;;5012591;28;20521;-65
2023/09/15 08:44:53;;;;;;;10.33;4.90;;;19.40;98.00;;;;;;4995058;28;20972;-65
2023/09/15 08:47:20;;;;;;;8.60;4.83;;;19.50;98.00;;;;;;5012771;28;20458;-64
2023/09/15 08:49:49;;;;;;;10.03;4.87;;;19.80;98.00;;;;;;5013136;28;20459;-64
2023/09/15 08:52:17;;;;;;;9.30;4.77;;;19.90;98.00;;;;;;5013386;28;20458;-65
2023/09/15 08:54:45;;;;;;;8.10;4.60;;;20.10;98.00;;;;;;5013277;28;20546;-67
2023/09/15 08:57:12;;;;;;;9.03;5.03;;;20.20;98.00;;;;;;5013249;28;20487;-65
2023/09/15 08:59:41;;;;;;;9.30;4.97;;;20.40;98.00;;;;;;4994767;28;20490;-66
2023/09/15 09:02:13;;;;;;;8.03;4.80;;;20.60;98.00;;;;;;5012415;28;20458;-65
2023/09/15 09:04:41;;;;;;;8.03;4.63;;;20.80;98.00;;;;;;5012282;28;20502;-64
2023/09/15 09:07:09;;;;;;;10.53;5.03;;;21.00;98.00;;;;;;5012376;28;20879;-65
2023/09/15 09:09:39;;;;;;;9.10;5.23;;;21.20;98.00;;;;;;5012160;28;20466;-65
2023/09/15 09:12:06;;;;;;;7.93;4.77;;;21.30;98.00;;;;;;5012234;28;20460;-65
2023/09/15 09:14:33;;;;;;;8.63;4.97;;;21.50;98.00;;;;;;5012177;28;20447;-65
2023/09/15 09:17:02;;;;;;;8.03;4.50;;;21.60;98.00;;;;;;5012406;28;20455;-65
2023/09/15 09:19:36;;;;;;;7.90;4.80;;;21.80;98.00;;;;;;5012169;28;21006;-65
2023/09/15 09:22:04;;;;;;;7.93;4.77;;;21.90;98.00;;;;;;5012288;28;20541;-64
2023/09/15 09:24:31;;;;;;;7.80;4.53;;;22.00;98.00;;;;;;5012138;28;20452;-63
2023/09/15 09:27:08;;;;;;;8.07;4.73;;;22.10;98.00;;;;;;5012232;28;20871;-62
2023/09/15 09:29:35;;;;;;;8.17;4.87;;;22.30;98.00;;;;;;5011998;28;20459;-63
2023/09/15 09:32:04;;;;;;;8.10;4.77;;;22.50;98.00;;;;;;5012148;28;20953;-63
2023/09/15 09:34:31;;;;;;;7.53;4.53;;;22.70;98.00;;;;;;5012158;28;20530;-63
2023/09/15 09:36:59;;;;;;;8.70;4.97;;;22.80;98.00;;;;;;5011756;28;20973;-63
2023/09/15 09:39:28;;;;;;;8.63;5.00;;;23.00;98.00;;;;;;4995006;28;20483;-63
2023/09/15 09:41:56;;;;;;;7.30;4.70;;;23.10;98.00;;;;;;5012022;28;20455;-62
2023/09/15 09:44:23;;;;;;;10.13;5.43;;;23.20;98.00;;;;;;5012307;28;20982;-65
2023/09/15 09:46:56;;;;;;;9.00;4.83;;;23.40;98.00;;;;;;5012171;28;20469;-65
2023/09/15 09:49:26;;;;;;;9.50;5.10;;;23.50;98.00;;;;;;5012686;28;20463;-66
2023/09/15 09:51:53;;;;;;;8.80;5.00;;;23.70;98.00;;;;;;4979146;28;20502;-65
2023/09/15 09:54:20;;;;;;;8.40;4.97;;;23.80;98.00;;;;;;5011840;28;20871;-66
2023/09/15 09:56:51;;;;;;;9.50;5.13;;;24.10;98.00;;;;;;5012317;28;20254;-65
2023/09/15 09:59:18;;;;;;;9.27;5.13;;;24.20;98.00;;;;;;5012508;28;20491;-66
2023/09/15 10:01:45;;;;;;;7.23;4.93;;;24.30;98.00;;;;;;5012341;28;20942;-66
2023/09/15 10:04:12;;;;;;;8.13;5.33;;;24.50;98.00;;;;;;5012919;28;20459;-64
2023/09/15 10:06:41;;;;;;;7.90;5.33;;;24.70;98.00;;;;;;5012921;28;20458;-65
2023/09/15 10:09:09;;;;;;;9.63;5.10;;;24.80;98.00;;;;;;5013412;28;20452;-65
2023/09/15 10:11:37;;;;;;;8.33;5.10;;;24.90;98.00;;;;;;4996260;28;20939;-66
2023/09/15 10:14:06;;;;;;;8.53;5.07;;;24.80;98.00;;;;;;4979838;28;20950;-66
2023/09/15 10:16:34;;;;;;;8.30;4.97;;;25.00;98.00;;;;;;5013979;28;20483;-66
2023/09/15 10:19:03;;;;;;;8.00;4.87;;;25.30;98.00;;;;;;5015379;28;20484;-65
2023/09/15 10:21:32;;;;;;;9.47;5.00;;;25.50;98.00;;;;;;5014355;28;20456;-65
2023/09/15 10:24:05;;;;;;;11.10;5.20;;;25.50;98.00;;;;;;5014306;28;20455;-66
2023/09/15 10:26:34;;;;;;;8.67;5.20;;;25.70;98.00;;;;;;5014599;28;20820;-65
2023/09/15 10:31:32;;;;;;;8.30;4.90;;;26.10;98.00;;;;;;5040085;28;20510;-63
2023/09/15 10:34:04;;;;;;;7.37;4.40;;;26.30;98.00;;;;;;5045142;28;20451;-66
2023/09/15 10:36:32;;;;;;;8.20;5.30;;;26.30;98.00;;;;;;5039580;28;21000;-65
2023/09/15 10:39:14;;;;;;;7.30;4.80;;;26.50;98.00;;;;;;5038323;28;20582;-65
2023/09/15 10:41:44;;;;;;;8.20;4.97;;;26.60;98.00;;;;;;5036953;28;20549;-66
2023/09/15 10:44:11;;;;;;;7.73;4.57;;;26.80;98.00;;;;;;5033211;28;20459;-66
2023/09/15 10:46:40;;;;;;;7.10;4.60;;;27.00;98.00;;;;;;5033634;28;20465;-65
2023/09/15 10:49:15;;;;;;;6.33;4.20;;;27.20;98.00;;;;;;5032935;28;20455;-65
2023/09/15 10:51:53;;;;;;;7.17;4.63;;;27.40;98.00;;;;;;5032688;28;20516;-65
2023/09/15 10:54:22;;;;;;;6.93;4.40;;;27.60;97.70;;;;;;5033203;28;20458;-64
2023/09/15 10:56:49;;;;;;;9.83;4.63;;;27.80;97.50;;;;;;5032062;28;20504;-63
2023/09/15 10:59:17;;;;;;;6.77;4.40;;;28.00;98.00;;;;;;5031333;28;20876;-63
2023/09/15 11:01:45;;;;;;;6.83;4.37;;;28.20;96.80;;;;;;5031447;28;20797;-63
2023/09/15 11:04:17;;;;;;;6.97;4.60;;;28.40;95.20;;;;;;5034256;28;20454;-63
2023/09/15 11:06:47;;;;;;;8.73;5.20;;;28.50;94.90;;;;;;5034655;28;20551;-62
2023/09/15 11:09:15;;;;;;;7.20;4.60;;;28.70;94.60;;;;;;5032142;28;20460;-63
2023/09/15 11:11:46;;;;;;;7.43;4.83;;;28.70;95.20;;;;;;5033417;28;20458;-63
2023/09/15 11:14:16;;;;;;;6.40;4.37;;;28.90;94.50;;;;;;5034394;28;20520;-63
2023/09/15 11:16:45;;;;;;;6.17;4.30;;;29.00;93.90;;;;;;5034171;28;20461;-63
2023/09/15 11:19:14;;;;;;;7.20;4.27;;;29.20;92.10;;;;;;5034999;28;20573;-66
2023/09/15 11:21:41;;;;;;;7.93;4.70;;;29.40;93.60;;;;;;5033537;28;20459;-67
2023/09/15 11:24:11;;;;;;;7.37;4.77;;;29.40;91.90;;;;;;5033991;28;20451;-67
2023/09/15 11:26:47;;;;;;;9.73;4.30;;;29.60;91.50;;;;;;5035030;28;20463;-67
2023/09/15 11:29:18;;;;;;;8.13;4.70;;;29.70;90.60;;;;;;5034012;28;20547;-66
2023/09/15 11:31:46;;;;;;;7.00;4.60;;;29.70;91.50;;;;;;5032900;28;20455;-66
2023/09/15 11:34:16;;;;;;;8.40;4.80;;;30.10;90.30;;;;;;5034038;28;20481;-66
2023/09/15 11:36:43;;;;;;;8.07;4.47;;;30.40;88.50;;;;;;5033805;28;20579;-66
2023/09/15 11:39:12;;;;;;;8.77;4.90;;;30.50;88.50;;;;;;5033654;28;20494;-65
2023/09/15 11:41:40;;;;;;;7.70;4.77;;;30.70;86.90;;;;;;5033696;28;20450;-65
2023/09/15 11:44:10;;;;;;;7.13;4.80;;;30.90;85.80;;;;;;5032415;28;20458;-65
2023/09/15 11:46:39;;;;;;;7.80;5.10;;;31.20;87.80;;;;;;5033642;28;20454;-65
2023/09/15 11:49:08;;;;;;;6.40;4.40;;;31.40;85.30;;;;;;5033444;28;20509;-65
2023/09/15 11:51:38;;;;;;;7.07;4.73;;;31.50;84.30;;;;;;5033433;28;20454;-65
2023/09/15 11:54:06;;;;;;;8.27;5.17;;;31.30;84.30;;;;;;5031029;28;20471;-63
2023/09/15 11:56:38;;;;;;;7.67;4.93;;;31.40;85.40;;;;;;5031264;28;20463;-63
2023/09/15 11:59:06;;;;;;;8.13;4.90;;;31.60;84.50;;;;;;5013412;28;20483;-61
2023/09/15 12:01:36;;;;;;;8.33;5.07;;;31.70;83.30;;;;;;5013429;28;20463;-61
2023/09/15 12:04:04;;;;;;;5.90;4.20;;;31.80;82.60;;;;;;5012920;28;20455;-60
2023/09/15 12:06:32;;;;;;;6.60;4.60;;;31.70;82.90;;;;;;5013182;28;20970;-61
2023/09/15 12:08:59;;;;;;;5.93;4.47;;;31.80;83.10;;;;;;5013049;28;20973;-60
2023/09/15 12:11:27;;;;;;;6.00;4.37;;;32.10;81.90;;;;;;5013152;28;20455;-60
2023/09/15 12:13:54;;;;;;;7.27;4.90;;;32.00;81.70;;;;;;5013255;28;20478;-61
2023/09/15 12:16:27;;;;;;;6.87;4.17;;;32.20;80.40;;;;;;5013774;28;20938;-61
2023/09/15 12:18:59;;;;;;;7.27;4.53;;;32.30;79.80;;;;;;5013484;28;20578;-65
2023/09/15 12:21:28;;;;;;;6.63;4.67;;;32.40;81.90;;;;;;5013745;28;20838;-65
2023/09/15 12:23:56;;;;;;;6.00;4.63;;;32.30;80.00;;;;;;5013538;28;20467;-64
2023/09/15 12:26:24;;;;;;;6.30;4.27;;;32.20;80.80;;;;;;5013703;28;20908;-65
2023/09/15 12:28:53;;;;;;;9.60;5.03;;;32.10;79.60;;;;;;5020029;28;20553;-67
2023/09/15 12:31:21;;;;;;;6.20;4.10;;;32.00;80.60;;;;;;5032799;28;20999;-66
2023/09/15 12:33:48;;;;;;;6.70;5.07;;;32.10;80.90;;;;;;5033222;28;20463;-64
2023/09/15 12:36:18;;;;;;;6.87;4.60;;;32.20;80.60;;;;;;5033309;28;20514;-64
2023/09/15 12:38:45;;;;;;;7.67;4.50;;;32.20;80.10;;;;;;5032992;28;20458;-66
2023/09/15 12:41:14;;;;;;;8.23;5.10;;;32.30;80.30;;;;;;5033112;28;20466;-67
2023/09/15 12:43:45;;;;;;;8.03;4.57;;;32.30;79.90;;;;;;5032915;28;20939;-65
2023/09/15 12:46:12;;;;;;;7.33;4.60;;;32.30;79.90;;;;;;5033059;28;20542;-65
2023/09/15 12:48:40;;;;;;;6.13;4.60;;;32.40;80.10;;;;;;5032828;28;20458;-60
2023/09/15 12:51:07;;;;;;;7.60;4.97;;;32.60;80.60;;;;;;5032429;28;20450;-60
2023/09/15 12:53:37;;;;;;;10.00;5.43;;;32.70;80.80;;;;;;5032137;28;20455;-61
2023/09/15 12:56:04;;;;;;;9.90;4.60;;;32.70;80.00;;;;;;5032767;28;20486;-61